createdAt,value
2019-03-15T00:00:14.504Z,89.62
2019-03-15T00:01:14.472Z,89.52
2019-03-15T00:02:14.453Z,88.65
2019-03-15T00:03:14.435Z,88.45
2019-03-15T00:04:14.436Z,88.55
2019-03-15T00:05:14.419Z,88.76
2019-03-15T00:06:14.434Z,89.17
2019-03-15T00:07:15.138Z,89.38
2019-03-15T00:08:14.425Z,88.49
2019-03-15T00:09:14.375Z,87.93
2019-03-15T00:10:14.429Z,87.52
2019-03-15T00:11:14.356Z,87.31
2019-03-15T00:12:14.356Z,87.93
2019-03-15T00:13:14.350Z,87.10
2019-03-15T00:14:14.330Z,86.18
2019-03-15T00:15:14.326Z,85.55
2019-03-15T00:16:14.327Z,85.66
2019-03-15T00:17:14.330Z,86.38
2019-03-15T00:18:14.279Z,86.18
2019-03-15T00:19:14.284Z,86.79
2019-03-15T00:20:14.287Z,86.59
2019-03-15T00:21:14.258Z,86.79
2019-03-15T00:22:14.247Z,86.79
2019-03-15T00:23:14.259Z,86.59
2019-03-15T00:24:14.225Z,86.79
2019-03-15T00:25:14.211Z,86.49
2019-03-15T00:26:14.202Z,86.55
2019-03-15T00:27:14.223Z,86.76
2019-03-15T00:28:14.241Z,86.86
2019-03-15T00:29:14.202Z,87.00
2019-03-15T00:30:14.167Z,87.21
2019-03-15T00:31:14.140Z,87.52
2019-03-15T00:32:14.144Z,87.62
2019-03-15T00:33:14.152Z,87.83
2019-03-15T00:34:14.157Z,87.83
2019-03-15T00:35:14.109Z,87.10
2019-03-15T00:36:14.102Z,87.68
2019-03-15T00:37:14.088Z,86.90
2019-03-15T00:38:14.074Z,88.34
2019-03-15T00:39:14.083Z,87.93
2019-03-15T00:40:14.081Z,86.59
2019-03-15T00:41:14.041Z,86.76
2019-03-15T00:42:14.040Z,86.79
2019-03-15T00:43:14.021Z,87.73
2019-03-15T00:44:14.008Z,88.14
2019-03-15T00:45:14.006Z,88.45
2019-03-15T00:46:14.015Z,88.45
2019-03-15T00:47:14.082Z,87.93
2019-03-15T00:48:13.977Z,87.52
2019-03-15T00:49:13.957Z,87.73
2019-03-15T00:50:13.961Z,87.37
2019-03-15T00:51:13.968Z,87.21
2019-03-15T00:52:14.042Z,87.10
2019-03-15T00:53:13.918Z,86.90
2019-03-15T00:54:13.912Z,85.97
2019-03-15T00:55:13.890Z,86.69
2019-03-15T00:56:13.880Z,87.10
2019-03-15T00:57:13.892Z,86.44
2019-03-15T00:58:13.878Z,85.66
2019-03-15T00:59:13.850Z,85.86
2019-03-15T01:00:13.843Z,85.55
2019-03-15T01:01:13.860Z,85.86
2019-03-15T01:02:13.849Z,85.52
2019-03-15T01:03:13.829Z,85.10
2019-03-15T01:04:13.820Z,85.83
2019-03-15T01:05:13.787Z,85.66
2019-03-15T01:06:13.781Z,85.83
2019-03-15T01:07:13.786Z,85.52
2019-03-15T01:08:13.751Z,85.55
2019-03-15T01:09:13.755Z,85.86
2019-03-15T01:10:13.739Z,85.55
2019-03-15T01:11:13.782Z,85.66
2019-03-15T01:12:13.715Z,85.97
2019-03-15T01:13:13.727Z,86.13
2019-03-15T01:14:13.695Z,86.18
2019-03-15T01:15:13.695Z,86.79
2019-03-15T01:16:13.691Z,86.07
2019-03-15T01:17:13.705Z,86.44
2019-03-15T01:18:13.657Z,86.79
2019-03-15T01:19:13.650Z,86.18
2019-03-15T01:20:13.629Z,86.69
2019-03-15T01:21:13.627Z,87.52
2019-03-15T01:22:13.608Z,87.52
2019-03-15T01:23:13.617Z,87.52
2019-03-15T01:24:13.587Z,87.93
2019-03-15T01:25:13.578Z,88.55
2019-03-15T01:26:13.577Z,88.96
2019-03-15T01:27:13.574Z,89.38
2019-03-15T01:28:13.597Z,89.73
2019-03-15T01:29:13.534Z,90.25
2019-03-15T01:30:13.538Z,91.07
2019-03-15T01:31:13.526Z,91.90
2019-03-15T01:32:13.500Z,92.25
2019-03-15T01:33:13.515Z,93.18
2019-03-15T01:34:13.521Z,94.01
2019-03-15T01:35:13.476Z,94.22
2019-03-15T01:36:13.463Z,94.32
2019-03-15T01:37:13.449Z,94.94
2019-03-15T01:38:13.441Z,94.63
2019-03-15T01:39:13.435Z,94.53
2019-03-15T01:40:13.505Z,94.53
2019-03-15T01:41:13.404Z,94.47
2019-03-15T01:42:13.423Z,94.01
2019-03-15T01:43:13.472Z,94.22
2019-03-15T01:44:13.382Z,94.06
2019-03-15T01:45:13.360Z,93.54
2019-03-15T01:46:13.391Z,92.87
2019-03-15T01:47:13.349Z,92.97
2019-03-15T01:48:13.341Z,93.02
2019-03-15T01:49:13.325Z,93.02
2019-03-15T01:50:13.315Z,92.77
2019-03-15T01:51:13.326Z,93.23
2019-03-15T01:52:13.292Z,93.08
2019-03-15T01:53:13.284Z,93.85
2019-03-15T01:54:13.683Z,94.22
2019-03-15T01:55:13.259Z,94.16
2019-03-15T01:56:13.252Z,94.68
2019-03-15T01:57:13.263Z,94.26
2019-03-15T01:58:13.311Z,94.57
2019-03-15T01:59:13.222Z,94.26
2019-03-15T02:00:13.482Z,94.37
2019-03-15T02:01:13.198Z,94.06
2019-03-15T02:02:13.192Z,94.26
2019-03-15T02:03:13.663Z,94.47
2019-03-15T02:04:13.166Z,94.06
2019-03-15T02:05:13.165Z,93.02
2019-03-15T02:06:13.158Z,93.02
2019-03-15T02:07:13.138Z,91.99
2019-03-15T02:08:13.148Z,92.50
2019-03-15T02:09:13.131Z,92.61
2019-03-15T02:10:13.096Z,92.46
2019-03-15T02:11:13.095Z,91.88
2019-03-15T02:12:13.091Z,91.94
2019-03-15T02:13:13.100Z,92.77
2019-03-15T02:14:13.061Z,92.61
2019-03-15T02:15:13.053Z,91.94
2019-03-15T02:16:13.038Z,92.19
2019-03-15T02:17:13.026Z,93.29
2019-03-15T02:18:13.126Z,92.97
2019-03-15T02:19:13.012Z,93.49
2019-03-15T02:20:13.001Z,94.01
2019-03-15T02:21:13.011Z,94.06
2019-03-15T02:22:12.980Z,93.95
2019-03-15T02:23:13.816Z,94.06
2019-03-15T02:24:13.488Z,93.80
2019-03-15T02:25:12.941Z,94.16
2019-03-15T02:26:12.947Z,93.64
2019-03-15T02:27:12.941Z,93.49
2019-03-15T02:28:12.912Z,94.06
2019-03-15T02:29:12.896Z,93.95
2019-03-15T02:30:12.934Z,93.85
2019-03-15T02:31:12.887Z,93.70
2019-03-15T02:32:12.965Z,94.37
2019-03-15T02:33:12.866Z,93.74
2019-03-15T02:34:12.854Z,93.74
2019-03-15T02:35:12.858Z,93.70
2019-03-15T02:36:13.942Z,93.95
2019-03-15T02:37:12.827Z,94.01
2019-03-15T02:38:12.868Z,93.74
2019-03-15T02:39:12.798Z,93.70
2019-03-15T02:40:13.120Z,93.29
2019-03-15T02:41:12.772Z,93.54
2019-03-15T02:42:12.779Z,94.26
2019-03-15T02:43:12.753Z,94.32
2019-03-15T02:44:12.913Z,94.26
2019-03-15T02:45:12.758Z,93.80
2019-03-15T02:46:12.767Z,94.26
2019-03-15T02:47:12.718Z,94.26
2019-03-15T02:48:13.596Z,94.01
2019-03-15T02:49:12.700Z,94.22
2019-03-15T02:50:12.685Z,94.43
2019-03-15T02:51:12.664Z,94.37
2019-03-15T02:52:12.699Z,94.57
2019-03-15T02:53:12.647Z,94.47
2019-03-15T02:54:12.637Z,94.43
2019-03-15T02:55:12.628Z,94.37
2019-03-15T02:56:12.639Z,94.47
2019-03-15T02:57:12.643Z,94.43
2019-03-15T02:58:12.600Z,94.78
2019-03-15T02:59:12.610Z,95.25
2019-03-15T03:00:13.889Z,95.61
2019-03-15T03:01:12.569Z,96.08
2019-03-15T03:02:12.568Z,96.44
2019-03-15T03:03:12.574Z,96.12
2019-03-15T03:04:14.063Z,96.33
2019-03-15T03:05:12.517Z,96.33
2019-03-15T03:06:12.514Z,96.85
2019-03-15T03:07:12.499Z,97.26
2019-03-15T03:08:13.599Z,97.06
2019-03-15T03:09:12.518Z,97.67
2019-03-15T03:10:12.486Z,97.78
2019-03-15T03:11:12.478Z,97.67
2019-03-15T03:12:12.442Z,98.13
2019-03-15T03:13:12.435Z,97.93
2019-03-15T03:14:12.432Z,98.13
2019-03-15T03:15:12.442Z,97.62
2019-03-15T03:16:12.409Z,97.62
2019-03-15T03:17:13.229Z,97.47
2019-03-15T03:18:12.389Z,96.95
2019-03-15T03:19:12.424Z,97.06
2019-03-15T03:20:12.417Z,97.78
2019-03-15T03:21:12.374Z,97.88
2019-03-15T03:22:12.401Z,97.26
2019-03-15T03:23:12.335Z,97.41
2019-03-15T03:24:12.321Z,97.06
2019-03-15T03:25:12.389Z,97.06
2019-03-15T03:26:13.411Z,96.64
2019-03-15T03:27:12.286Z,96.64
2019-03-15T03:28:12.294Z,96.23
2019-03-15T03:29:12.290Z,96.75
2019-03-15T03:30:13.219Z,96.64
2019-03-15T03:31:12.315Z,96.02
2019-03-15T03:32:13.607Z,96.23
2019-03-15T03:33:12.931Z,96.27
2019-03-15T03:34:12.775Z,96.23
2019-03-15T03:35:12.565Z,96.44
2019-03-15T03:36:12.352Z,95.71
2019-03-15T03:37:12.204Z,95.40
2019-03-15T03:38:12.384Z,94.89
2019-03-15T03:39:12.173Z,94.89
2019-03-15T03:40:12.178Z,94.89
2019-03-15T03:41:12.164Z,95.19
2019-03-15T03:42:12.142Z,94.89
2019-03-15T03:43:12.141Z,95.19
2019-03-15T03:44:12.182Z,95.19
2019-03-15T03:45:12.129Z,95.40
2019-03-15T03:46:12.127Z,95.29
2019-03-15T03:47:12.108Z,95.61
2019-03-15T03:48:12.069Z,95.61
2019-03-15T03:49:12.087Z,95.71
2019-03-15T03:50:12.075Z,95.67
2019-03-15T03:51:12.038Z,95.50
2019-03-15T03:52:12.046Z,95.67
2019-03-15T03:53:12.032Z,96.12
2019-03-15T03:54:12.006Z,95.46
2019-03-15T03:55:12.003Z,95.92
2019-03-15T03:56:11.974Z,95.87
2019-03-15T03:57:11.998Z,96.59
2019-03-15T03:58:11.962Z,95.61
2019-03-15T03:59:11.955Z,96.23
2019-03-15T04:00:11.940Z,95.56
2019-03-15T04:01:11.929Z,96.12
2019-03-15T04:02:11.918Z,96.54
2019-03-15T04:03:11.919Z,96.44
2019-03-15T04:04:11.901Z,96.12
2019-03-15T04:05:11.895Z,96.23
2019-03-15T04:06:11.886Z,96.12
2019-03-15T04:07:11.860Z,96.85
2019-03-15T04:08:12.345Z,96.85
2019-03-15T04:09:11.857Z,97.06
2019-03-15T04:10:11.860Z,97.16
2019-03-15T04:11:11.840Z,96.75
2019-03-15T04:12:11.838Z,97.16
2019-03-15T04:13:12.057Z,97.47
2019-03-15T04:14:11.806Z,97.47
2019-03-15T04:15:11.781Z,97.88
2019-03-15T04:16:11.862Z,98.65
2019-03-15T04:17:11.762Z,98.19
2019-03-15T04:18:12.096Z,99.27
2019-03-15T04:19:11.783Z,98.92
2019-03-15T04:20:11.738Z,98.55
2019-03-15T04:21:11.719Z,99.27
2019-03-15T04:22:11.706Z,99.43
2019-03-15T04:23:11.698Z,99.23
2019-03-15T04:24:11.689Z,99.13
2019-03-15T04:25:11.703Z,99.33
2019-03-15T04:26:11.671Z,99.64
2019-03-15T04:27:11.647Z,99.99
2019-03-15T04:28:11.678Z,99.99
2019-03-15T04:29:11.637Z,99.99
2019-03-15T04:30:11.649Z,99.95
2019-03-15T04:31:11.651Z,99.79
2019-03-15T04:32:11.634Z,99.95
2019-03-15T04:33:11.586Z,99.95
2019-03-15T04:34:11.629Z,99.99
2019-03-15T04:35:11.573Z,99.99
2019-03-15T04:36:11.592Z,99.99
2019-03-15T04:37:11.561Z,99.99
2019-03-15T04:38:11.547Z,99.99
2019-03-15T04:39:14.017Z,99.99
2019-03-15T04:40:11.527Z,99.74
2019-03-15T04:41:11.525Z,99.85
2019-03-15T04:42:11.531Z,99.95
2019-03-15T04:43:11.490Z,99.85
2019-03-15T04:44:11.475Z,99.95
2019-03-15T04:45:11.464Z,99.95
2019-03-15T04:46:11.461Z,99.95
2019-03-15T04:47:11.455Z,99.99
2019-03-15T04:48:11.449Z,99.99
2019-03-15T04:49:11.426Z,99.74
2019-03-15T04:50:11.416Z,99.99
2019-03-15T04:51:11.406Z,99.99
2019-03-15T04:52:11.394Z,99.74
2019-03-15T04:53:11.406Z,99.33
2019-03-15T04:54:11.366Z,99.13
2019-03-15T04:55:11.363Z,99.08
2019-03-15T04:56:11.358Z,99.43
2019-03-15T04:57:11.390Z,99.33
2019-03-15T04:58:11.341Z,99.39
2019-03-15T04:59:11.341Z,99.33
2019-03-15T05:00:11.319Z,99.33
2019-03-15T05:01:11.300Z,99.23
2019-03-15T05:02:11.525Z,99.43
2019-03-15T05:03:11.270Z,99.13
2019-03-15T05:04:11.287Z,99.74
2019-03-15T05:05:11.270Z,99.02
2019-03-15T05:06:11.242Z,98.92
2019-03-15T05:07:11.236Z,98.97
2019-03-15T05:08:11.223Z,99.13
2019-03-15T05:09:11.219Z,99.13
2019-03-15T05:10:11.226Z,99.13
2019-03-15T05:11:11.192Z,99.13
2019-03-15T05:12:11.177Z,99.23
2019-03-15T05:13:11.168Z,99.02
2019-03-15T05:14:11.168Z,99.43
2019-03-15T05:15:11.152Z,98.19
2019-03-15T05:16:11.172Z,99.23
2019-03-15T05:17:11.146Z,99.23
2019-03-15T05:18:11.122Z,99.13
2019-03-15T05:19:11.117Z,99.23
2019-03-15T05:20:11.098Z,98.30
2019-03-15T05:21:11.108Z,98.61
2019-03-15T05:22:11.078Z,98.61
2019-03-15T05:23:11.072Z,98.71
2019-03-15T05:24:11.059Z,98.19
2019-03-15T05:25:11.056Z,98.61
2019-03-15T05:26:11.035Z,98.61
2019-03-15T05:27:11.024Z,98.82
2019-03-15T05:28:11.028Z,98.82
2019-03-15T05:29:11.007Z,98.61
2019-03-15T05:30:11.034Z,98.61
2019-03-15T05:31:10.983Z,98.82
2019-03-15T05:32:11.005Z,98.61
2019-03-15T05:33:10.962Z,98.09
2019-03-15T05:34:10.952Z,98.61
2019-03-15T05:35:10.982Z,98.71
2019-03-15T05:36:10.959Z,99.33
2019-03-15T05:37:10.922Z,99.23
2019-03-15T05:38:10.900Z,98.71
2019-03-15T05:39:10.895Z,99.02
2019-03-15T05:40:10.898Z,99.23
2019-03-15T05:41:10.937Z,99.23
2019-03-15T05:42:10.887Z,98.82
2019-03-15T05:43:10.854Z,98.71
2019-03-15T05:44:10.847Z,99.02
2019-03-15T05:45:10.840Z,98.19
2019-03-15T05:46:10.823Z,98.30
2019-03-15T05:47:10.813Z,98.82
2019-03-15T05:48:10.824Z,98.30
2019-03-15T05:49:10.807Z,98.50
2019-03-15T05:50:10.785Z,98.30
2019-03-15T05:51:10.777Z,98.30
2019-03-15T05:52:10.764Z,98.61
2019-03-15T05:53:10.784Z,98.40
2019-03-15T05:54:10.743Z,98.61
2019-03-15T05:55:10.727Z,98.61
2019-03-15T05:56:10.715Z,98.30
2019-03-15T05:57:10.722Z,98.61
2019-03-15T05:58:10.701Z,98.61
2019-03-15T05:59:10.748Z,98.71
2019-03-15T06:00:10.678Z,98.82
2019-03-15T06:01:10.693Z,98.61
2019-03-15T06:02:10.661Z,98.50
2019-03-15T06:03:12.546Z,97.88
2019-03-15T06:04:10.640Z,97.84
2019-03-15T06:05:10.682Z,97.78
2019-03-15T06:06:10.612Z,97.47
2019-03-15T06:07:10.605Z,97.84
2019-03-15T06:08:10.680Z,97.57
2019-03-15T06:09:10.578Z,97.42
2019-03-15T06:10:10.609Z,97.63
2019-03-15T06:11:10.565Z,97.42
2019-03-15T06:12:10.551Z,97.99
2019-03-15T06:13:10.538Z,98.35
2019-03-15T06:14:10.557Z,97.74
2019-03-15T06:15:10.526Z,98.77
2019-03-15T06:16:10.535Z,98.66
2019-03-15T06:17:10.537Z,98.25
2019-03-15T06:18:10.505Z,97.78
2019-03-15T06:19:10.474Z,97.57
2019-03-15T06:20:10.469Z,97.84
2019-03-15T06:21:10.452Z,97.78
2019-03-15T06:22:10.459Z,97.99
2019-03-15T06:23:10.436Z,97.53
2019-03-15T06:24:10.484Z,97.78
2019-03-15T06:25:10.414Z,97.74
2019-03-15T06:26:10.405Z,97.47
2019-03-15T06:27:10.435Z,97.63
2019-03-15T06:28:10.384Z,97.53
2019-03-15T06:29:10.461Z,97.42
2019-03-15T06:30:10.358Z,97.53
2019-03-15T06:31:10.346Z,97.67
2019-03-15T06:32:10.331Z,98.05
2019-03-15T06:33:10.360Z,97.99
2019-03-15T06:34:10.339Z,97.47
2019-03-15T06:35:10.345Z,97.57
2019-03-15T06:36:10.297Z,97.53
2019-03-15T06:37:10.284Z,97.42
2019-03-15T06:38:10.276Z,97.84
2019-03-15T06:39:10.281Z,97.74
2019-03-15T06:40:13.294Z,97.53
2019-03-15T06:41:10.246Z,97.78
2019-03-15T06:42:10.229Z,97.84
2019-03-15T06:43:13.058Z,97.53
2019-03-15T06:44:10.234Z,97.11
2019-03-15T06:45:10.198Z,96.70
2019-03-15T06:46:10.188Z,96.91
2019-03-15T06:47:10.184Z,96.49
2019-03-15T06:48:10.162Z,96.70
2019-03-15T06:49:10.160Z,96.75
2019-03-15T06:50:10.167Z,96.80
2019-03-15T06:51:10.161Z,97.11
2019-03-15T06:52:10.127Z,96.59
2019-03-15T06:53:10.132Z,96.64
2019-03-15T06:54:11.592Z,97.01
2019-03-15T06:55:10.115Z,96.91
2019-03-15T06:56:10.081Z,97.01
2019-03-15T06:57:10.074Z,96.70
2019-03-15T06:58:10.063Z,96.49
2019-03-15T06:59:10.051Z,96.39
2019-03-15T07:00:10.106Z,96.80
2019-03-15T07:01:10.054Z,96.80
2019-03-15T07:02:10.035Z,95.94
2019-03-15T07:03:10.026Z,96.29
2019-03-15T07:04:09.998Z,96.76
2019-03-15T07:05:12.074Z,96.03
2019-03-15T07:06:10.014Z,95.56
2019-03-15T07:07:10.482Z,96.14
2019-03-15T07:08:09.955Z,96.03
2019-03-15T07:09:10.002Z,96.55
2019-03-15T07:10:10.025Z,95.83
2019-03-15T07:11:09.948Z,96.03
2019-03-15T07:12:10.179Z,95.31
2019-03-15T07:13:09.951Z,94.48
2019-03-15T07:14:09.930Z,94.69
2019-03-15T07:15:09.999Z,94.79
2019-03-15T07:16:09.903Z,95.21
2019-03-15T07:17:09.906Z,94.79
2019-03-15T07:18:09.858Z,95.10
2019-03-15T07:19:09.876Z,95.10
2019-03-15T07:20:09.833Z,95.00
2019-03-15T07:21:09.824Z,94.75
2019-03-15T07:22:09.844Z,95.42
2019-03-15T07:23:09.794Z,95.42
2019-03-15T07:24:09.790Z,94.96
2019-03-15T07:25:09.770Z,95.21
2019-03-15T07:26:09.770Z,94.96
2019-03-15T07:27:13.140Z,94.96
2019-03-15T07:28:09.781Z,94.75
2019-03-15T07:29:09.732Z,94.44
2019-03-15T07:30:09.727Z,94.65
2019-03-15T07:31:09.707Z,95.48
2019-03-15T07:32:09.732Z,95.99
2019-03-15T07:33:09.705Z,95.57
2019-03-15T07:34:09.713Z,96.41
2019-03-15T07:35:09.683Z,96.41
2019-03-15T07:36:09.661Z,96.51
2019-03-15T07:37:09.646Z,95.99
2019-03-15T07:38:09.634Z,94.96
2019-03-15T07:39:12.616Z,94.96
2019-03-15T07:40:09.695Z,94.65
2019-03-15T07:41:09.608Z,94.65
2019-03-15T07:42:09.590Z,94.60
2019-03-15T07:43:09.595Z,94.65
2019-03-15T07:44:09.584Z,94.34
2019-03-15T07:45:09.621Z,94.85
2019-03-15T07:46:09.547Z,95.06
2019-03-15T07:47:09.545Z,93.97
2019-03-15T07:48:21.794Z,93.72
2019-03-15T07:49:10.528Z,93.72
2019-03-15T07:50:09.528Z,93.88
2019-03-15T07:51:09.514Z,93.93
2019-03-15T07:52:09.516Z,94.29
2019-03-15T07:53:09.473Z,94.13
2019-03-15T07:54:09.472Z,93.57
2019-03-15T07:55:09.482Z,94.23
2019-03-15T07:56:09.476Z,93.68
2019-03-15T07:57:09.448Z,92.99
2019-03-15T07:58:09.423Z,93.72
2019-03-15T07:59:09.435Z,93.78
2019-03-15T08:00:09.446Z,93.57
2019-03-15T08:01:09.474Z,93.82
2019-03-15T08:02:09.424Z,93.51
2019-03-15T08:03:09.363Z,92.85
2019-03-15T08:04:16.835Z,92.95
2019-03-15T08:05:10.372Z,92.99
2019-03-15T08:06:09.368Z,93.68
2019-03-15T08:07:09.335Z,94.19
2019-03-15T08:08:09.341Z,94.40
2019-03-15T08:09:09.325Z,93.78
2019-03-15T08:10:09.290Z,93.98
2019-03-15T08:11:09.296Z,94.50
2019-03-15T08:12:09.304Z,94.40
2019-03-15T08:13:09.260Z,94.19
2019-03-15T08:14:09.276Z,93.37
2019-03-15T08:15:09.232Z,92.95
2019-03-15T08:16:09.231Z,93.63
2019-03-15T08:17:09.240Z,94.09
2019-03-15T08:18:09.240Z,94.19
2019-03-15T08:19:09.235Z,93.05
2019-03-15T08:20:09.187Z,91.98
2019-03-15T08:21:09.170Z,92.08
2019-03-15T08:22:09.168Z,92.23
2019-03-15T08:23:09.181Z,91.92
2019-03-15T08:24:09.148Z,91.98
2019-03-15T08:25:09.160Z,92.29
2019-03-15T08:26:09.122Z,92.40
2019-03-15T08:27:09.146Z,92.08
2019-03-15T08:28:09.141Z,92.14
2019-03-15T08:29:09.823Z,91.77
2019-03-15T08:30:09.109Z,92.60
2019-03-15T08:31:09.085Z,92.08
2019-03-15T08:32:09.060Z,91.77
2019-03-15T08:33:10.427Z,92.29
2019-03-15T08:34:09.054Z,92.14
2019-03-15T08:35:09.025Z,92.80
2019-03-15T08:36:09.015Z,92.25
2019-03-15T08:37:09.019Z,92.04
2019-03-15T08:38:09.019Z,91.01
2019-03-15T08:39:09.083Z,91.63
2019-03-15T08:40:09.048Z,90.91
2019-03-15T08:41:08.992Z,90.91
2019-03-15T08:42:08.946Z,90.91
2019-03-15T08:43:08.974Z,91.01
2019-03-15T08:44:08.963Z,90.80
2019-03-15T08:45:08.915Z,90.28
2019-03-15T08:46:08.913Z,90.91
2019-03-15T08:47:08.891Z,90.39
2019-03-15T08:48:08.896Z,89.87
2019-03-15T08:49:08.899Z,89.62
2019-03-15T08:50:08.879Z,89.73
2019-03-15T08:51:10.627Z,90.25
2019-03-15T08:52:08.844Z,89.32
2019-03-15T08:53:08.832Z,89.83
2019-03-15T08:54:08.834Z,89.32
2019-03-15T08:55:08.835Z,89.42
2019-03-15T08:56:08.802Z,89.32
2019-03-15T08:57:08.796Z,88.80
2019-03-15T08:58:13.835Z,88.39
2019-03-15T08:59:09.781Z,89.48
2019-03-15T09:00:08.762Z,89.11
2019-03-15T09:01:10.910Z,88.70
2019-03-15T09:02:08.751Z,88.86
2019-03-15T09:03:08.737Z,89.94
2019-03-15T09:04:08.707Z,90.00
2019-03-15T09:05:08.702Z,89.32
2019-03-15T09:06:08.718Z,89.52
2019-03-15T09:07:08.685Z,89.58
2019-03-15T09:08:08.668Z,89.17
2019-03-15T09:09:08.675Z,88.96
2019-03-15T09:10:22.016Z,89.52
2019-03-15T09:11:09.659Z,89.89
2019-03-15T09:12:08.631Z,90.92
2019-03-15T09:13:08.631Z,89.58
2019-03-15T09:14:08.618Z,89.38
2019-03-15T09:15:08.620Z,89.42
2019-03-15T09:16:08.593Z,90.76
2019-03-15T09:17:08.672Z,89.48
2019-03-15T09:18:08.568Z,89.89
2019-03-15T09:19:08.547Z,89.79
2019-03-15T09:20:08.532Z,90.51
2019-03-15T09:21:08.534Z,90.72
2019-03-15T09:22:08.515Z,89.38
2019-03-15T09:23:08.518Z,88.76
2019-03-15T09:24:08.498Z,88.72
2019-03-15T09:25:18.698Z,89.13
2019-03-15T09:26:10.644Z,88.92
2019-03-15T09:27:10.499Z,88.82
2019-03-15T09:28:08.474Z,89.03
2019-03-15T09:29:08.447Z,88.51
2019-03-15T09:30:18.050Z,87.69
2019-03-15T09:31:09.415Z,87.03
2019-03-15T09:32:09.356Z,87.79
2019-03-15T09:33:08.399Z,88.51
2019-03-15T09:34:08.407Z,87.38
2019-03-15T09:35:08.392Z,87.59
2019-03-15T09:36:08.395Z,88.62
2019-03-15T09:37:08.354Z,87.38
2019-03-15T09:38:10.361Z,87.69
2019-03-15T09:39:08.344Z,88.17
2019-03-15T09:40:08.792Z,87.48
2019-03-15T09:41:08.321Z,87.38
2019-03-15T09:42:08.291Z,88.20
2019-03-15T09:43:08.286Z,88.62
2019-03-15T09:44:08.291Z,87.59
2019-03-15T09:45:08.264Z,88.06
2019-03-15T09:46:08.280Z,89.09
2019-03-15T09:47:08.254Z,88.31
2019-03-15T09:48:08.257Z,87.44
2019-03-15T09:49:08.218Z,86.31
2019-03-15T09:50:21.096Z,86.00
2019-03-15T09:51:09.220Z,87.03
2019-03-15T09:52:08.212Z,85.69
2019-03-15T09:53:08.197Z,86.35
2019-03-15T09:54:08.170Z,87.24
2019-03-15T09:55:08.167Z,87.34
2019-03-15T09:56:08.155Z,86.41
2019-03-15T09:57:08.147Z,86.10
2019-03-15T09:58:08.143Z,85.69
2019-03-15T09:59:08.110Z,85.79
2019-03-15T10:00:08.099Z,85.28
2019-03-15T10:01:08.314Z,85.17
2019-03-15T10:02:08.119Z,85.28
2019-03-15T10:03:21.213Z,85.59
2019-03-15T10:04:09.070Z,86.41
2019-03-15T10:05:11.267Z,86.52
2019-03-15T10:06:15.378Z,86.61
2019-03-15T10:07:09.037Z,87.13
2019-03-15T10:08:08.110Z,86.52
2019-03-15T10:09:08.003Z,86.31
2019-03-15T10:10:13.417Z,85.69
2019-03-15T10:11:08.977Z,85.34
2019-03-15T10:12:07.972Z,84.42
2019-03-15T10:13:07.984Z,85.86
2019-03-15T10:14:07.939Z,86.58
2019-03-15T10:15:08.337Z,85.86
2019-03-15T10:16:08.758Z,85.34
2019-03-15T10:17:07.913Z,83.90
2019-03-15T10:18:07.997Z,85.55
2019-03-15T10:19:07.887Z,85.24
2019-03-15T10:20:07.886Z,85.86
2019-03-15T10:21:09.281Z,85.34
2019-03-15T10:22:07.862Z,86.06
2019-03-15T10:23:07.847Z,86.37
2019-03-15T10:24:07.851Z,86.27
2019-03-15T10:25:07.823Z,85.79
2019-03-15T10:26:07.823Z,85.24
2019-03-15T10:27:07.803Z,85.79
2019-03-15T10:28:07.836Z,87.03
2019-03-15T10:29:15.392Z,86.93
2019-03-15T10:30:08.773Z,87.03
2019-03-15T10:31:07.760Z,85.28
2019-03-15T10:32:07.801Z,85.24
2019-03-15T10:33:07.728Z,85.55
2019-03-15T10:34:07.888Z,84.93
2019-03-15T10:35:07.732Z,85.24
2019-03-15T10:36:07.698Z,85.65
2019-03-15T10:37:07.696Z,86.47
2019-03-15T10:38:10.267Z,86.41
2019-03-15T10:39:07.660Z,85.96
2019-03-15T10:40:07.675Z,86.99
2019-03-15T10:41:07.649Z,86.52
2019-03-15T10:42:07.633Z,86.10
2019-03-15T10:43:07.626Z,85.79
2019-03-15T10:44:07.613Z,86.52
2019-03-15T10:45:07.615Z,86.31
2019-03-15T10:46:07.597Z,87.03
2019-03-15T10:47:07.697Z,87.75
2019-03-15T10:48:08.208Z,88.26
2019-03-15T10:49:07.562Z,88.99
2019-03-15T10:50:07.542Z,89.50
2019-03-15T10:51:07.565Z,89.61
2019-03-15T10:52:07.517Z,89.19
2019-03-15T10:53:07.530Z,89.29
2019-03-15T10:54:07.504Z,89.29
2019-03-15T10:55:07.545Z,89.91
2019-03-15T10:56:07.470Z,90.01
2019-03-15T10:57:07.497Z,90.84
2019-03-15T10:58:07.458Z,90.73
2019-03-15T10:59:07.444Z,89.19
2019-03-15T11:00:07.461Z,89.09
2019-03-15T11:01:07.423Z,89.50
2019-03-15T11:02:07.414Z,89.40
2019-03-15T11:03:07.418Z,90.33
2019-03-15T11:04:07.391Z,89.95
2019-03-15T11:05:07.395Z,89.13
2019-03-15T11:06:07.373Z,90.16
2019-03-15T11:07:07.351Z,89.91
2019-03-15T11:08:07.373Z,90.73
2019-03-15T11:09:07.346Z,90.43
2019-03-15T11:10:07.315Z,90.12
2019-03-15T11:11:07.309Z,90.22
2019-03-15T11:12:07.293Z,91.36
2019-03-15T11:13:07.317Z,91.66
2019-03-15T11:14:07.276Z,91.97
2019-03-15T11:15:07.278Z,91.30
2019-03-15T11:16:07.252Z,91.50
2019-03-15T11:17:07.249Z,92.02
2019-03-15T11:18:07.243Z,92.02
2019-03-15T11:19:07.244Z,92.63
2019-03-15T11:20:07.213Z,92.22
2019-03-15T11:21:07.213Z,92.43
2019-03-15T11:22:07.187Z,91.81
2019-03-15T11:23:07.193Z,93.66
2019-03-15T11:24:07.182Z,93.66
2019-03-15T11:25:07.201Z,94.28
2019-03-15T11:26:13.515Z,94.90
2019-03-15T11:27:08.150Z,95.21
2019-03-15T11:28:07.132Z,95.25
2019-03-15T11:29:07.129Z,95.31
2019-03-15T11:30:07.125Z,96.39
2019-03-15T11:31:07.092Z,96.55
2019-03-15T11:32:07.098Z,96.39
2019-03-15T11:33:07.061Z,96.34
2019-03-15T11:34:07.057Z,96.91
2019-03-15T11:35:07.116Z,97.01
2019-03-15T11:36:07.040Z,96.70
2019-03-15T11:37:07.271Z,97.21
2019-03-15T11:38:07.011Z,97.63
2019-03-15T11:39:07.006Z,98.03
2019-03-15T11:40:07.030Z,98.24
2019-03-15T11:41:07.021Z,97.77
2019-03-15T11:42:06.967Z,97.98
2019-03-15T11:43:06.969Z,98.29
2019-03-15T11:44:06.955Z,98.19
2019-03-15T11:45:06.937Z,99.22
2019-03-15T11:46:06.944Z,98.80
2019-03-15T11:47:06.949Z,98.91
2019-03-15T11:48:09.007Z,99.43
2019-03-15T11:49:06.911Z,99.94
2019-03-15T11:50:06.886Z,99.94
2019-03-15T11:51:06.874Z,99.94
2019-03-15T11:52:06.913Z,99.63
2019-03-15T11:53:06.880Z,99.52
2019-03-15T11:54:06.846Z,99.84
2019-03-15T11:55:06.913Z,99.99
2019-03-15T11:56:06.816Z,99.99
2019-03-15T11:57:06.805Z,99.99
2019-03-15T11:58:06.908Z,99.63
2019-03-15T11:59:06.788Z,99.73
2019-03-15T12:00:06.767Z,99.99
2019-03-15T12:01:06.777Z,99.99
2019-03-15T12:02:06.759Z,99.99
2019-03-15T12:03:06.768Z,99.99
2019-03-15T12:04:06.727Z,99.99
2019-03-15T12:05:06.725Z,99.94
2019-03-15T12:06:06.702Z,99.99
2019-03-15T12:07:06.702Z,99.99
2019-03-15T12:08:06.865Z,99.99
2019-03-15T12:09:06.704Z,99.99
2019-03-15T12:10:06.688Z,99.99
2019-03-15T12:11:06.691Z,99.99
2019-03-15T12:12:06.640Z,99.99
2019-03-15T12:13:06.630Z,99.99
2019-03-15T12:14:06.624Z,99.99
2019-03-15T12:15:06.620Z,99.99
2019-03-15T12:16:06.602Z,99.99
2019-03-15T12:17:06.592Z,99.99
2019-03-15T12:18:08.360Z,99.99
2019-03-15T12:19:06.644Z,99.99
2019-03-15T12:20:06.592Z,99.99
2019-03-15T12:21:06.552Z,99.99
2019-03-15T12:22:06.884Z,99.99
2019-03-15T12:23:06.689Z,99.99
2019-03-15T12:24:06.509Z,99.99
2019-03-15T12:25:06.510Z,99.99
2019-03-15T12:26:08.827Z,99.99
2019-03-15T12:27:06.486Z,99.99
2019-03-15T12:28:06.550Z,99.99
2019-03-15T12:29:06.465Z,99.99
2019-03-15T12:30:06.447Z,99.99
2019-03-15T12:31:06.461Z,99.99
2019-03-15T12:32:06.441Z,99.99
2019-03-15T12:33:06.494Z,99.99
2019-03-15T12:34:06.422Z,99.99
2019-03-15T12:35:06.449Z,99.99
2019-03-15T12:36:06.423Z,99.99
2019-03-15T12:37:06.364Z,99.99
2019-03-15T12:38:06.363Z,99.99
2019-03-15T12:39:06.350Z,99.99
2019-03-15T12:40:06.366Z,99.99
2019-03-15T12:41:06.319Z,99.99
2019-03-15T12:42:06.327Z,99.99
2019-03-15T12:43:06.295Z,99.99
2019-03-15T12:44:06.359Z,99.99
2019-03-15T12:45:06.325Z,99.99
2019-03-15T12:46:06.282Z,99.99
2019-03-15T12:47:06.520Z,99.99
2019-03-15T12:48:06.263Z,99.99
2019-03-15T12:49:06.231Z,99.99
2019-03-15T12:50:06.244Z,99.99
2019-03-15T12:51:06.384Z,99.99
2019-03-15T12:52:06.199Z,99.99